createdAt,value
2018-07-28T00:00:04.508Z,9.55
2018-07-28T00:02:32.947Z,8.13
2018-07-28T00:05:01.370Z,7.85
2018-07-28T00:07:29.870Z,7.70
2018-07-28T00:09:58.255Z,7.20
2018-07-28T00:12:26.650Z,8.52
2018-07-28T00:14:55.844Z,9.00
2018-07-28T00:17:25.062Z,9.45
2018-07-28T00:19:54.224Z,7.82
2018-07-28T00:22:22.610Z,7.30
2018-07-28T00:24:50.992Z,9.63
2018-07-28T00:27:20.139Z,10.20
2018-07-28T00:29:48.563Z,6.82
2018-07-28T00:32:17.017Z,8.07
2018-07-28T00:34:45.415Z,11.63
2018-07-28T00:37:13.999Z,8.07
2018-07-28T00:39:42.383Z,8.02
2018-07-28T00:42:10.755Z,7.50
2018-07-28T00:44:39.247Z,6.62
2018-07-28T00:47:07.733Z,7.55
2018-07-28T00:49:36.179Z,7.15
2018-07-28T00:52:04.585Z,7.70
2018-07-28T00:54:32.979Z,9.02
2018-07-28T00:57:01.522Z,8.65
2018-07-28T00:59:29.898Z,8.00
2018-07-28T01:01:58.565Z,9.02
2018-07-28T01:04:26.985Z,10.50
2018-07-28T01:06:55.343Z,8.02
2018-07-28T01:09:23.821Z,8.52
2018-07-28T01:11:52.226Z,8.07
2018-07-28T01:14:20.603Z,8.02
2018-07-28T01:16:48.990Z,9.10
2018-07-28T01:19:17.430Z,7.65
2018-07-28T01:21:45.837Z,6.72
2018-07-28T01:24:14.291Z,7.50
2018-07-28T01:26:42.666Z,8.25
2018-07-28T01:29:11.052Z,6.53
2018-07-28T01:31:39.425Z,7.28
2018-07-28T01:34:07.810Z,7.95
2018-07-28T01:36:36.173Z,6.85
2018-07-28T01:39:04.762Z,7.95
2018-07-28T01:41:33.182Z,8.98
2018-07-28T01:44:01.538Z,6.30
2018-07-28T01:46:29.944Z,6.72
2018-07-28T01:48:58.334Z,6.05
2018-07-28T01:51:26.758Z,7.65
2018-07-28T01:53:55.138Z,6.40
2018-07-28T01:56:23.620Z,6.20
2018-07-28T01:58:52.034Z,5.80
2018-07-28T02:01:20.492Z,6.78
2018-07-28T02:03:48.927Z,8.18
2018-07-28T02:06:17.288Z,7.80
2018-07-28T02:08:45.711Z,6.47
2018-07-28T02:11:14.100Z,7.28
2018-07-28T02:13:42.518Z,8.30
2018-07-28T02:16:10.871Z,6.68
2018-07-28T02:18:39.292Z,8.30
2018-07-28T02:21:07.807Z,9.48
2018-07-28T02:23:36.196Z,6.68
2018-07-28T02:26:04.579Z,6.07
2018-07-28T02:28:32.991Z,6.72
2018-07-28T02:31:01.371Z,5.90
2018-07-28T02:33:30.036Z,6.35
2018-07-28T02:35:58.419Z,6.97
2018-07-28T02:38:26.919Z,6.47
2018-07-28T02:40:55.272Z,7.22
2018-07-28T02:43:23.781Z,6.93
2018-07-28T02:45:52.161Z,7.82
2018-07-28T02:48:20.545Z,7.82
2018-07-28T02:50:48.947Z,6.55
2018-07-28T02:53:17.350Z,7.97
2018-07-28T02:55:45.771Z,7.12
2018-07-28T02:58:14.157Z,6.62
2018-07-28T03:00:42.608Z,7.28
2018-07-28T03:03:11.007Z,6.72
2018-07-28T03:05:39.393Z,8.60
2018-07-28T03:08:07.749Z,6.75
2018-07-28T03:10:36.149Z,7.43
2018-07-28T03:13:04.624Z,6.10
2018-07-28T03:15:33.188Z,7.43
2018-07-28T03:18:02.321Z,7.07
2018-07-28T03:20:30.743Z,6.60
2018-07-28T03:22:59.150Z,7.07
2018-07-28T03:25:28.373Z,6.53
2018-07-28T03:27:56.746Z,6.80
2018-07-28T03:30:25.117Z,6.75
2018-07-28T03:32:53.569Z,7.45
2018-07-28T03:35:21.979Z,6.32
2018-07-28T03:37:50.393Z,7.28
2018-07-28T03:40:18.875Z,6.90
2018-07-28T03:42:47.331Z,7.35
2018-07-28T03:45:15.812Z,7.78
2018-07-28T03:47:44.329Z,8.52
2018-07-28T03:50:12.730Z,8.18
2018-07-28T03:52:41.165Z,7.45
2018-07-28T03:55:09.545Z,9.20
2018-07-28T03:57:37.924Z,7.00
2018-07-28T04:00:06.379Z,7.10
2018-07-28T04:02:34.830Z,8.48
2018-07-28T04:05:03.189Z,8.15
2018-07-28T04:07:31.623Z,7.45
2018-07-28T04:10:00.069Z,7.53
2018-07-28T04:12:28.443Z,7.15
2018-07-28T04:14:56.813Z,7.43
2018-07-28T04:17:25.205Z,9.05
2018-07-28T04:19:53.662Z,7.50
2018-07-28T04:22:22.065Z,7.47
2018-07-28T04:24:50.441Z,7.10
2018-07-28T04:27:18.798Z,6.55
2018-07-28T04:29:47.210Z,8.45
2018-07-28T04:32:15.619Z,8.10
2018-07-28T04:34:44.001Z,10.02
2018-07-28T04:37:12.537Z,8.85
2018-07-28T04:39:40.813Z,10.82
2018-07-28T04:42:09.187Z,7.15
2018-07-28T04:44:37.576Z,8.43
2018-07-28T04:47:06.058Z,7.40
2018-07-28T04:49:34.432Z,7.72
2018-07-28T04:52:02.829Z,7.85
2018-07-28T04:54:31.202Z,11.45
2018-07-28T04:57:00.335Z,7.75
2018-07-28T04:59:28.722Z,7.80
2018-07-28T05:01:57.156Z,10.05
2018-07-28T05:04:25.534Z,7.72
2018-07-28T05:06:54.000Z,9.23
2018-07-28T05:09:22.493Z,7.72
2018-07-28T05:11:50.870Z,9.20
2018-07-28T05:14:19.459Z,7.43
2018-07-28T05:16:47.829Z,8.95
2018-07-28T05:19:16.265Z,8.05
2018-07-28T05:21:44.710Z,10.40
2018-07-28T05:24:13.071Z,8.15
2018-07-28T05:26:41.445Z,8.00
2018-07-28T05:29:09.829Z,8.27
2018-07-28T05:31:39.028Z,10.60
2018-07-28T05:34:07.405Z,8.02
2018-07-28T05:36:35.827Z,8.40
2018-07-28T05:39:05.073Z,8.57
2018-07-28T05:41:34.190Z,10.75
2018-07-28T05:44:02.629Z,8.43
2018-07-28T05:46:31.039Z,8.45
2018-07-28T05:48:59.412Z,8.07
2018-07-28T05:51:27.775Z,10.70
2018-07-28T05:53:56.271Z,8.98
2018-07-28T05:56:24.698Z,8.98
2018-07-28T05:58:53.863Z,9.52
2018-07-28T06:01:22.279Z,9.57
2018-07-28T06:03:50.657Z,9.38
2018-07-28T06:06:19.788Z,9.02
2018-07-28T06:08:48.191Z,9.32
2018-07-28T06:11:16.581Z,9.82
2018-07-28T06:13:44.991Z,10.80
2018-07-28T06:16:14.147Z,9.98
2018-07-28T06:18:42.541Z,11.05
2018-07-28T06:21:10.935Z,9.65
2018-07-28T06:23:39.547Z,9.80
2018-07-28T06:26:08.681Z,12.65
2018-07-28T06:28:37.094Z,9.57
2018-07-28T06:31:05.502Z,10.40
2018-07-28T06:33:33.924Z,10.32
2018-07-28T06:36:02.315Z,15.85
2018-07-28T06:38:34.769Z,10.68
2018-07-28T06:41:03.227Z,12.55
2018-07-28T06:43:31.641Z,13.50
2018-07-28T06:46:00.713Z,9.85
2018-07-28T06:48:29.177Z,10.95
2018-07-28T06:50:57.602Z,11.27
2018-07-28T06:53:26.009Z,11.18
2018-07-28T06:55:54.389Z,14.27
2018-07-28T06:58:22.838Z,12.70
2018-07-28T07:00:51.223Z,12.25
2018-07-28T07:03:19.647Z,14.10
2018-07-28T07:05:48.788Z,11.25
2018-07-28T07:08:17.161Z,11.25
2018-07-28T07:10:45.603Z,14.45
2018-07-28T07:13:14.737Z,12.00
2018-07-28T07:15:43.259Z,12.35
2018-07-28T07:18:11.635Z,10.95
2018-07-28T07:20:40.038Z,10.32
2018-07-28T07:23:09.195Z,11.18
2018-07-28T07:25:38.475Z,10.15
2018-07-28T07:28:06.918Z,9.50
2018-07-28T07:30:36.041Z,10.43
2018-07-28T07:33:04.487Z,9.63
2018-07-28T07:35:33.629Z,10.50
2018-07-28T07:38:02.020Z,10.65
2018-07-28T07:40:30.709Z,10.32
2018-07-28T07:42:59.140Z,10.05
2018-07-28T07:45:27.509Z,10.40
2018-07-28T07:47:56.669Z,10.13
2018-07-28T07:50:25.100Z,11.40
2018-07-28T07:52:53.545Z,11.05
2018-07-28T07:55:21.967Z,9.88
2018-07-28T07:57:51.129Z,10.90
2018-07-28T08:00:19.491Z,9.75
2018-07-28T08:02:47.903Z,14.70
2018-07-28T08:05:17.261Z,15.38
2018-07-28T08:07:46.080Z,13.30
2018-07-28T08:10:14.471Z,9.23
2018-07-28T08:12:43.022Z,10.48
2018-07-28T08:15:11.425Z,9.05
2018-07-28T08:17:39.854Z,9.35
2018-07-28T08:20:10.169Z,9.40
2018-07-28T08:22:38.563Z,9.15
2018-07-28T08:25:07.826Z,10.02
2018-07-28T08:27:37.028Z,8.82
2018-07-28T08:30:05.396Z,9.95
2018-07-28T08:32:34.652Z,8.77
2018-07-28T08:35:03.028Z,9.15
2018-07-28T08:37:31.442Z,7.97
2018-07-28T08:39:59.848Z,9.15
2018-07-28T08:42:28.348Z,9.68
2018-07-28T08:44:56.789Z,10.20
2018-07-28T08:47:25.156Z,9.13
2018-07-28T08:49:53.548Z,8.55
2018-07-28T08:52:21.926Z,9.38
2018-07-28T08:54:50.368Z,8.85
2018-07-28T08:57:18.774Z,8.75
2018-07-28T08:59:47.235Z,7.85
2018-07-28T09:02:15.608Z,7.97
2018-07-28T09:04:44.012Z,8.10
2018-07-28T09:07:12.410Z,10.40
2018-07-28T09:09:40.814Z,8.07
2018-07-28T09:12:09.553Z,8.30
2018-07-28T09:14:38.050Z,8.43
2018-07-28T09:17:06.530Z,7.90
2018-07-28T09:19:34.930Z,7.97
2018-07-28T09:22:03.314Z,9.00
2018-07-28T09:24:31.684Z,11.95
2018-07-28T09:27:00.102Z,10.02
2018-07-28T09:29:28.512Z,8.75
2018-07-28T09:31:57.516Z,7.87
2018-07-28T09:34:26.132Z,8.45
2018-07-28T09:36:54.564Z,7.97
2018-07-28T09:39:23.055Z,7.75
2018-07-28T09:41:51.558Z,8.23
2018-07-28T09:44:20.020Z,8.02
2018-07-28T09:46:49.220Z,7.80
2018-07-28T09:49:18.312Z,11.23
2018-07-28T09:51:46.752Z,10.25
2018-07-28T09:54:15.917Z,9.27
2018-07-28T09:56:44.446Z,7.85
2018-07-28T09:59:12.950Z,7.07
2018-07-28T10:01:41.434Z,7.43
2018-07-28T10:04:09.917Z,7.68
2018-07-28T10:06:38.432Z,7.55
2018-07-28T10:09:06.890Z,8.20
2018-07-28T10:11:35.340Z,6.35
2018-07-28T10:14:03.736Z,7.57
2018-07-28T10:16:32.119Z,7.43
2018-07-28T10:19:00.533Z,9.07
2018-07-28T10:21:28.934Z,6.95
2018-07-28T10:23:57.300Z,7.30
2018-07-28T10:26:26.524Z,8.35
2018-07-28T10:28:54.882Z,6.72
2018-07-28T10:31:23.345Z,7.40
2018-07-28T10:33:51.831Z,8.57
2018-07-28T10:36:20.660Z,7.30
2018-07-28T10:38:49.475Z,7.80
2018-07-28T10:41:18.003Z,7.00
2018-07-28T10:43:47.428Z,6.50
2018-07-28T10:46:16.576Z,7.57
2018-07-28T10:48:44.937Z,6.90
2018-07-28T10:51:13.365Z,6.78
2018-07-28T10:53:41.830Z,8.60
2018-07-28T10:56:10.298Z,8.27
2018-07-28T10:58:39.168Z,6.43
2018-07-28T11:01:07.560Z,6.30
2018-07-28T11:03:35.940Z,6.20
2018-07-28T11:06:04.352Z,6.35
2018-07-28T11:08:33.550Z,6.43
2018-07-28T11:11:01.910Z,6.05
2018-07-28T11:13:30.348Z,7.60
2018-07-28T11:15:58.842Z,6.37
2018-07-28T11:18:27.258Z,7.12
2018-07-28T11:20:56.647Z,7.43
2018-07-28T11:23:25.049Z,13.75
2018-07-28T11:25:53.494Z,15.80
2018-07-28T11:28:21.903Z,15.25
2018-07-28T11:30:51.082Z,13.82
2018-07-28T11:39:54.899Z,9.50
2018-07-28T11:42:35.056Z,12.20
2018-07-28T11:45:03.453Z,8.48
2018-07-28T11:47:31.876Z,9.43
2018-07-28T11:50:01.236Z,7.12
2018-07-28T11:52:29.711Z,6.60
2018-07-28T11:54:58.490Z,5.37
2018-07-28T11:57:26.924Z,6.28
2018-07-28T11:59:55.336Z,4.70
2018-07-28T12:02:24.521Z,6.15
2018-07-28T12:04:53.803Z,5.22
2018-07-28T12:07:22.239Z,4.70
2018-07-28T12:09:50.615Z,8.73
2018-07-28T12:12:18.995Z,7.28
2018-07-28T12:14:47.367Z,8.50
2018-07-28T12:17:15.783Z,7.82
2018-07-28T12:19:44.122Z,8.68
2018-07-28T12:22:12.556Z,10.25
2018-07-28T12:24:41.093Z,7.70
2018-07-28T12:27:09.542Z,7.90
2018-07-28T12:29:38.838Z,8.07
2018-07-28T12:32:07.365Z,7.37
2018-07-28T12:34:35.945Z,6.82
2018-07-28T12:37:05.091Z,9.90
2018-07-28T12:39:33.588Z,8.80
2018-07-28T12:42:02.747Z,9.45
2018-07-28T12:44:31.173Z,11.33
2018-07-28T12:47:00.356Z,9.52
2018-07-28T12:49:28.822Z,9.57
2018-07-28T12:51:57.172Z,8.65
2018-07-28T12:54:25.628Z,9.13
2018-07-28T12:56:54.825Z,10.85
2018-07-28T12:59:23.946Z,9.68
2018-07-28T13:01:52.422Z,8.32
2018-07-28T13:04:20.880Z,7.85
2018-07-28T13:06:50.188Z,9.88
2018-07-28T13:09:19.322Z,9.32
2018-07-28T13:11:47.744Z,8.50
2018-07-28T13:14:16.918Z,10.85
2018-07-28T13:16:45.360Z,8.45
2018-07-28T13:19:13.782Z,9.95
2018-07-28T13:21:42.224Z,8.50
2018-07-28T13:24:10.661Z,8.63
2018-07-28T13:26:39.156Z,10.23
2018-07-28T13:29:07.644Z,10.18
2018-07-28T13:31:37.067Z,8.38
2018-07-28T13:34:05.483Z,10.48
2018-07-28T13:36:33.975Z,8.93
2018-07-28T13:39:02.382Z,8.45
2018-07-28T13:41:31.574Z,10.18
2018-07-28T13:44:00.733Z,8.65
2018-07-28T13:46:29.120Z,11.50
2018-07-28T13:48:57.531Z,8.30
2018-07-28T13:51:26.726Z,10.60
2018-07-28T13:53:55.137Z,8.85
2018-07-28T13:56:23.540Z,8.32
2018-07-28T13:58:51.938Z,9.20
2018-07-28T14:01:20.338Z,8.77
2018-07-28T14:03:48.722Z,10.30
2018-07-28T14:06:17.988Z,11.80
2018-07-28T14:08:46.347Z,12.95
2018-07-28T14:11:14.773Z,8.50
2018-07-28T14:13:43.224Z,13.30
2018-07-28T14:16:11.657Z,10.10
2018-07-28T14:18:40.891Z,9.43
2018-07-28T14:21:09.738Z,11.18
2018-07-28T14:23:39.717Z,9.45
2018-07-28T14:26:08.122Z,9.13
2018-07-28T14:28:36.540Z,10.43
2018-07-28T14:31:04.927Z,10.02
2018-07-28T14:33:34.139Z,9.15
2018-07-28T14:36:02.559Z,9.88
2018-07-28T14:38:30.953Z,11.12
2018-07-28T14:41:00.113Z,8.60
2018-07-28T14:43:28.501Z,8.95
2018-07-28T14:45:57.194Z,9.60
2018-07-28T14:48:25.611Z,9.23
2018-07-28T14:50:54.036Z,8.10
2018-07-28T14:53:22.425Z,8.90
2018-07-28T14:55:51.111Z,8.60
2018-07-28T14:58:19.777Z,9.45
2018-07-28T15:00:48.221Z,10.50
2018-07-28T15:03:17.409Z,8.15
2018-07-28T15:05:45.788Z,10.38
2018-07-28T15:08:14.190Z,29.63
2018-07-28T15:10:42.610Z,9.07
2018-07-28T15:13:11.104Z,9.35
2018-07-28T15:15:39.550Z,14.68
2018-07-28T15:18:08.078Z,9.60
2018-07-28T15:20:36.609Z,9.13
2018-07-28T15:23:05.031Z,10.07
2018-07-28T15:25:34.317Z,11.65
2018-07-28T15:28:02.741Z,10.70
2018-07-28T15:30:31.906Z,9.55
2018-07-28T15:33:00.318Z,11.02
2018-07-28T15:35:29.519Z,10.10
2018-07-28T15:37:58.691Z,9.30
2018-07-28T15:40:27.051Z,7.95
2018-07-28T15:42:55.493Z,11.07
2018-07-28T15:45:23.872Z,9.38
2018-07-28T15:47:52.308Z,8.13
2018-07-28T15:50:20.673Z,8.30
2018-07-28T15:52:49.245Z,10.45
2018-07-28T15:55:18.145Z,10.57
2018-07-28T15:57:46.542Z,9.10
2018-07-28T16:00:15.098Z,9.75
2018-07-28T16:02:43.446Z,9.95
2018-07-28T16:05:11.926Z,9.15
2018-07-28T16:07:40.319Z,10.20
2018-07-28T16:10:08.697Z,18.12
2018-07-28T16:12:37.103Z,11.30
2018-07-28T16:15:05.947Z,10.70
2018-07-28T16:17:34.336Z,7.75
2018-07-28T16:20:02.885Z,7.78
2018-07-28T16:22:32.554Z,9.40
2018-07-28T16:25:00.971Z,8.82
2018-07-28T16:27:29.317Z,8.95
2018-07-28T16:29:57.859Z,8.45
2018-07-28T16:32:26.995Z,9.32
2018-07-28T16:34:55.428Z,10.40
2018-07-28T16:37:24.578Z,9.63
2018-07-28T16:39:53.387Z,9.27
2018-07-28T16:42:21.871Z,7.90
2018-07-28T16:44:50.265Z,8.43
2018-07-28T16:47:18.721Z,9.02
2018-07-28T16:49:47.107Z,8.60
2018-07-28T16:52:15.722Z,7.97
2018-07-28T16:54:44.073Z,11.65
2018-07-28T16:57:12.479Z,8.80
2018-07-28T16:59:40.832Z,8.00
2018-07-28T17:02:09.205Z,12.15
2018-07-28T17:04:37.661Z,8.18
2018-07-28T17:07:06.080Z,10.15
2018-07-28T17:09:34.443Z,8.88
2018-07-28T17:12:02.850Z,9.10
2018-07-28T17:14:31.253Z,11.10
2018-07-28T17:16:59.635Z,12.13
2018-07-28T17:19:28.137Z,10.20
2018-07-28T17:21:56.557Z,11.32
2018-07-28T17:24:24.899Z,8.52
2018-07-28T17:26:53.327Z,10.38
2018-07-28T17:29:22.477Z,9.88
2018-07-28T17:31:51.408Z,9.32
2018-07-28T17:34:19.808Z,11.02
2018-07-28T17:36:48.959Z,7.97
2018-07-28T17:39:17.365Z,9.48
2018-07-28T17:41:45.726Z,10.77
2018-07-28T17:44:14.208Z,9.18
2018-07-28T17:46:42.886Z,11.63
2018-07-28T17:49:11.250Z,9.82
2018-07-28T17:51:39.641Z,9.85
2018-07-28T17:54:08.014Z,9.23
2018-07-28T17:56:36.377Z,8.85
2018-07-28T17:59:04.765Z,8.40
2018-07-28T18:01:33.141Z,8.43
2018-07-28T18:04:01.515Z,8.95
2018-07-28T18:06:29.901Z,9.82
2018-07-28T18:08:58.255Z,13.88
2018-07-28T18:11:27.447Z,9.75
2018-07-28T18:13:56.592Z,11.00
2018-07-28T18:16:24.968Z,11.48
2018-07-28T18:18:53.485Z,10.48
2018-07-28T18:21:22.612Z,15.25
2018-07-28T18:23:51.008Z,14.98
2018-07-28T18:26:19.349Z,16.25
2018-07-28T18:28:48.526Z,13.48
2018-07-28T18:31:16.926Z,13.95
2018-07-28T18:33:45.350Z,15.45
2018-07-28T18:36:13.855Z,14.38
2018-07-28T18:38:42.250Z,13.23
2018-07-28T18:41:11.139Z,14.40
2018-07-28T18:43:39.580Z,13.80
2018-07-28T18:46:08.082Z,15.00
2018-07-28T18:48:36.451Z,6.10
2018-07-28T18:51:04.910Z,3.87
2018-07-28T18:53:33.732Z,5.20
2018-07-28T18:56:02.311Z,4.30
2018-07-28T18:58:30.695Z,6.22
2018-07-28T19:00:59.040Z,7.87
2018-07-28T19:03:27.524Z,11.40
2018-07-28T19:05:55.825Z,9.85
2018-07-28T19:08:24.635Z,10.13
2018-07-28T19:10:52.993Z,8.50
2018-07-28T19:13:21.555Z,7.22
2018-07-28T19:15:49.928Z,8.07
2018-07-28T19:18:18.447Z,9.40
2018-07-28T19:20:46.948Z,7.53
2018-07-28T19:23:15.303Z,8.80
2018-07-28T19:25:43.659Z,7.87
2018-07-28T19:28:12.169Z,9.30
2018-07-28T19:30:40.568Z,10.53
2018-07-28T19:33:08.928Z,9.83
2018-07-28T19:35:37.319Z,9.27
2018-07-28T19:38:05.695Z,14.60
2018-07-28T19:40:34.078Z,13.50
2018-07-28T19:43:02.452Z,17.10
2018-07-28T19:45:30.839Z,13.60
2018-07-28T19:47:59.228Z,10.03
2018-07-28T19:50:27.809Z,9.87
2018-07-28T19:52:57.090Z,8.67
2018-07-28T19:55:25.482Z,9.40
2018-07-28T19:57:53.974Z,12.37
2018-07-28T20:00:22.354Z,9.87
2018-07-28T20:02:51.108Z,8.88
2018-07-28T20:05:19.513Z,10.67
2018-07-28T20:07:48.000Z,9.97
2018-07-28T20:10:16.360Z,11.00
2018-07-28T20:12:45.492Z,10.83
2018-07-28T20:15:13.860Z,9.07
2018-07-28T20:17:42.334Z,7.55
2018-07-28T20:20:10.844Z,8.57
2018-07-28T20:22:39.972Z,7.60
2018-07-28T20:25:08.390Z,9.70
2018-07-28T20:27:36.759Z,8.43
2018-07-28T20:30:05.130Z,10.60
2018-07-28T20:32:33.650Z,10.40
2018-07-28T20:35:02.150Z,10.70
2018-07-28T20:37:31.272Z,10.77
2018-07-28T20:39:59.666Z,11.57
2018-07-28T20:42:28.133Z,9.93
2018-07-28T20:44:56.526Z,12.63
2018-07-28T20:47:24.989Z,12.67
2018-07-28T20:49:53.412Z,9.83
2018-07-28T20:52:21.963Z,7.60
2018-07-28T20:54:50.312Z,7.63
2018-07-28T20:57:19.753Z,12.87
2018-07-28T20:59:48.148Z,8.27
2018-07-28T21:02:16.898Z,8.57
2018-07-28T21:04:46.022Z,9.23
2018-07-28T21:07:14.513Z,10.03
2018-07-28T21:09:43.648Z,8.97
2018-07-28T21:12:13.152Z,9.17
2018-07-28T21:14:42.322Z,10.23
2018-07-28T21:17:10.677Z,11.40
2018-07-28T21:19:39.252Z,9.53
2018-07-28T21:22:07.631Z,12.23
2018-07-28T21:24:36.070Z,11.33
2018-07-28T21:27:04.425Z,10.80
2018-07-28T21:29:32.972Z,10.10
2018-07-28T21:32:01.406Z,12.20
2018-07-28T21:34:29.809Z,25.43
2018-07-28T21:36:58.948Z,16.53
2018-07-28T21:39:27.576Z,15.37
2018-07-28T21:41:55.954Z,11.43
2018-07-28T21:44:25.144Z,12.20
2018-07-28T21:46:53.557Z,14.30
2018-07-28T21:49:22.744Z,12.63
2018-07-28T21:51:52.006Z,11.33
2018-07-28T21:54:20.628Z,12.73
2018-07-28T21:56:49.942Z,13.27
2018-07-28T21:59:18.366Z,13.17
2018-07-28T22:01:46.752Z,13.47
2018-07-28T22:04:15.173Z,13.33
2018-07-28T22:06:44.399Z,12.17
2018-07-28T22:09:12.821Z,11.37
2018-07-28T22:11:41.370Z,11.17
2018-07-28T22:14:09.924Z,11.50
2018-07-28T22:16:38.298Z,13.37
2018-07-28T22:19:07.468Z,11.07
2018-07-28T22:21:35.946Z,12.90
2018-07-28T22:24:04.560Z,12.17
2018-07-28T22:26:33.702Z,10.57
2018-07-28T22:29:02.142Z,13.00
2018-07-28T22:31:30.504Z,13.23
2018-07-28T22:33:59.938Z,13.43
2018-07-28T22:36:28.372Z,14.53
2018-07-28T22:38:56.750Z,14.40
2018-07-28T22:41:25.158Z,14.27
2018-07-28T22:43:54.332Z,14.57
2018-07-28T22:46:22.832Z,16.87
2018-07-28T22:48:51.970Z,17.07
2018-07-28T22:51:20.458Z,14.10
2018-07-28T22:53:48.896Z,14.77
2018-07-28T22:56:17.301Z,15.20
2018-07-28T22:58:45.781Z,16.93
2018-07-28T23:01:14.460Z,17.07
2018-07-28T23:03:42.840Z,14.70
2018-07-28T23:06:11.452Z,14.90
2018-07-28T23:08:40.140Z,17.00
2018-07-28T23:11:09.234Z,18.43
2018-07-28T23:13:37.637Z,18.37
2018-07-28T23:16:06.033Z,16.63
2018-07-28T23:18:34.416Z,15.77
2018-07-28T23:21:02.808Z,13.40
2018-07-28T23:23:31.942Z,16.20
2018-07-28T23:26:00.326Z,14.87
2018-07-28T23:28:28.709Z,13.70
2018-07-28T23:30:57.073Z,12.57
2018-07-28T23:33:25.441Z,12.37
2018-07-28T23:35:53.966Z,15.13
2018-07-28T23:38:22.359Z,14.23
2018-07-28T23:40:50.740Z,14.70
2018-07-28T23:43:19.156Z,15.30
2018-07-28T23:45:47.538Z,16.60
2018-07-28T23:48:15.944Z,13.73
2018-07-28T23:50:44.376Z,17.67
2018-07-28T23:53:12.758Z,16.27
2018-07-28T23:55:41.399Z,18.83
2018-07-28T23:58:09.810Z,16.13
